createdAt,value
2022-12-01T00:01:12.044Z,86.15
2022-12-01T00:03:39.360Z,85.86
2022-12-01T00:06:14.578Z,86.16
2022-12-01T00:08:42.498Z,86.75
2022-12-01T00:11:11.692Z,85.72
2022-12-01T00:13:38.580Z,86.35
2022-12-01T00:16:16.472Z,86.49
2022-12-01T00:18:43.563Z,86.15
2022-12-01T00:21:17.972Z,85.62
2022-12-01T00:23:50.857Z,86.38
2022-12-01T00:26:20.404Z,86.26
2022-12-01T00:28:52.213Z,86.17
2022-12-01T00:31:19.987Z,86.53
2022-12-01T00:33:46.836Z,86.68
2022-12-01T00:36:14.346Z,86.24
2022-12-01T00:38:41.555Z,86.88
2022-12-01T00:41:09.058Z,86.91
2022-12-01T00:43:36.048Z,86.31
2022-12-01T00:46:03.207Z,85.92
2022-12-01T00:48:30.100Z,86.37
2022-12-01T00:50:57.047Z,86.36
2022-12-01T00:53:24.265Z,86.56
2022-12-01T00:55:51.255Z,86.75
2022-12-01T00:58:18.005Z,86.73
2022-12-01T01:00:45.017Z,86.65
2022-12-01T01:03:11.975Z,86.54
2022-12-01T01:05:40.605Z,86.10
2022-12-01T01:08:12.188Z,85.45
2022-12-01T01:10:42.297Z,86.45
2022-12-01T01:13:09.585Z,86.64
2022-12-01T01:15:36.767Z,86.67
2022-12-01T01:18:04.080Z,86.14
2022-12-01T01:20:31.641Z,86.08
2022-12-01T01:22:59.037Z,86.57
2022-12-01T01:25:25.979Z,87.07
2022-12-01T01:27:52.792Z,86.40
2022-12-01T01:30:20.248Z,86.41
2022-12-01T01:32:47.437Z,86.60
2022-12-01T01:35:14.251Z,86.59
2022-12-01T01:37:41.017Z,86.60
2022-12-01T01:40:08.430Z,86.55
2022-12-01T01:42:35.146Z,86.41
2022-12-01T01:45:01.969Z,87.09
2022-12-01T01:47:40.783Z,87.01
2022-12-01T01:50:11.329Z,86.64
2022-12-01T01:52:55.033Z,86.45
2022-12-01T01:55:21.860Z,87.13
2022-12-01T01:57:48.761Z,86.37
2022-12-01T02:00:18.849Z,86.07
2022-12-01T02:02:47.433Z,85.87
2022-12-01T02:05:32.118Z,85.71
2022-12-01T02:08:00.335Z,85.65
2022-12-01T02:11:04.890Z,85.89
2022-12-01T02:13:43.470Z,85.70
2022-12-01T02:16:28.385Z,85.38
2022-12-01T02:19:17.002Z,85.70
2022-12-01T02:22:03.019Z,85.76
2022-12-01T02:24:49.101Z,85.75
2022-12-01T02:27:30.984Z,85.47
2022-12-01T02:30:03.953Z,85.77
2022-12-01T02:32:44.175Z,85.74
2022-12-01T02:35:29.952Z,85.86
2022-12-01T02:38:18.137Z,85.12
2022-12-01T02:40:56.226Z,86.05
2022-12-01T02:43:29.574Z,86.10
2022-12-01T02:46:37.793Z,85.35
2022-12-01T02:49:10.444Z,86.07
2022-12-01T02:51:40.184Z,86.11
2022-12-01T02:54:08.636Z,85.97
2022-12-01T02:56:35.426Z,85.77
2022-12-01T02:59:02.273Z,85.16
2022-12-01T03:01:35.098Z,85.10
2022-12-01T03:04:07.846Z,85.55
2022-12-01T03:06:43.518Z,85.85
2022-12-01T03:09:18.058Z,85.58
2022-12-01T03:12:30.017Z,85.36
2022-12-01T03:15:11.598Z,84.88
2022-12-01T03:18:01.268Z,84.46
2022-12-01T03:20:42.806Z,84.83
2022-12-01T03:23:16.038Z,84.16
2022-12-01T03:25:47.997Z,85.18
2022-12-01T03:28:21.546Z,85.02
2022-12-01T03:30:52.560Z,84.15
2022-12-01T03:33:27.280Z,84.41
2022-12-01T03:36:02.081Z,84.84
2022-12-01T03:38:30.637Z,85.89
2022-12-01T03:41:01.723Z,85.49
2022-12-01T03:43:34.671Z,85.19
2022-12-01T03:46:22.412Z,85.34
2022-12-01T03:48:50.476Z,86.13
2022-12-01T03:51:38.653Z,86.28
2022-12-01T03:54:16.530Z,86.65
2022-12-01T03:56:49.890Z,86.38
2022-12-01T03:59:21.018Z,86.24
2022-12-01T04:01:48.304Z,86.22
2022-12-01T04:04:15.336Z,86.08
2022-12-01T04:06:46.173Z,86.40
2022-12-01T04:09:13.514Z,86.72
2022-12-01T04:11:40.513Z,86.46
2022-12-01T04:14:07.222Z,85.91
2022-12-01T04:16:34.110Z,86.10
2022-12-01T04:19:00.907Z,85.97
2022-12-01T04:21:27.717Z,85.30
2022-12-01T04:23:54.446Z,86.46
2022-12-01T04:26:21.266Z,85.89
2022-12-01T04:28:48.363Z,86.39
2022-12-01T04:31:15.414Z,86.34
2022-12-01T04:33:42.297Z,85.91
2022-12-01T04:36:09.619Z,86.56
2022-12-01T04:38:36.528Z,86.80
2022-12-01T04:41:14.457Z,86.04
2022-12-01T04:43:42.014Z,86.40
2022-12-01T04:46:09.506Z,85.42
2022-12-01T04:48:39.997Z,85.78
2022-12-01T04:51:08.412Z,85.90
2022-12-01T04:53:36.578Z,86.15
2022-12-01T04:56:04.186Z,85.97
2022-12-01T04:58:32.889Z,86.38
2022-12-01T05:01:04.790Z,86.35
2022-12-01T05:03:31.670Z,86.27
2022-12-01T05:06:07.326Z,86.64
2022-12-01T05:08:34.280Z,87.13
2022-12-01T05:11:01.998Z,86.67
2022-12-01T05:13:28.879Z,87.10
2022-12-01T05:16:05.451Z,86.87
2022-12-01T05:18:32.369Z,86.88
2022-12-01T05:20:59.330Z,86.95
2022-12-01T05:23:28.190Z,86.91
2022-12-01T05:25:55.542Z,86.32
2022-12-01T05:28:24.062Z,86.85
2022-12-01T05:30:51.592Z,87.15
2022-12-01T05:33:18.521Z,87.02
2022-12-01T05:35:45.365Z,87.38
2022-12-01T05:38:12.144Z,87.07
2022-12-01T05:40:38.911Z,85.94
2022-12-01T05:43:06.762Z,86.27
2022-12-01T05:45:35.367Z,86.13
2022-12-01T05:48:03.018Z,86.70
2022-12-01T05:50:30.934Z,86.69
2022-12-01T05:52:57.992Z,86.63
2022-12-01T05:55:24.824Z,86.48
2022-12-01T05:57:51.658Z,86.32
2022-12-01T06:00:18.917Z,85.96
2022-12-01T06:02:45.795Z,86.37
2022-12-01T06:05:12.815Z,87.11
2022-12-01T06:07:39.563Z,86.83
2022-12-01T06:10:07.446Z,87.23
2022-12-01T06:12:34.244Z,87.06
2022-12-01T06:15:01.077Z,87.13
2022-12-01T06:17:28.075Z,87.15
2022-12-01T06:19:55.237Z,87.43
2022-12-01T06:22:22.001Z,87.69
2022-12-01T06:24:48.794Z,86.54
2022-12-01T06:27:15.565Z,86.56
2022-12-01T06:29:42.555Z,86.47
2022-12-01T06:32:09.624Z,85.51
2022-12-01T06:34:36.431Z,86.08
2022-12-01T06:37:03.266Z,85.33
2022-12-01T06:39:30.088Z,85.54
2022-12-01T06:41:56.870Z,86.02
2022-12-01T06:44:23.696Z,85.66
2022-12-01T06:46:50.463Z,85.71
2022-12-01T06:49:17.231Z,86.25
2022-12-01T06:51:44.890Z,86.16
2022-12-01T06:54:12.400Z,86.34
2022-12-01T06:56:39.282Z,85.62
2022-12-01T06:59:06.522Z,85.66
2022-12-01T07:01:33.573Z,85.95
2022-12-01T07:04:00.543Z,86.41
2022-12-01T07:06:30.284Z,86.10
2022-12-01T07:08:57.107Z,86.38
2022-12-01T07:11:23.930Z,86.08
2022-12-01T07:13:55.929Z,86.13
2022-12-01T07:16:23.286Z,85.51
2022-12-01T07:18:50.642Z,86.01
2022-12-01T07:21:17.515Z,86.00
2022-12-01T07:23:44.394Z,85.78
2022-12-01T07:26:14.441Z,85.46
2022-12-01T07:28:41.619Z,85.22
2022-12-01T07:31:16.771Z,84.42
2022-12-01T07:33:43.904Z,84.02
2022-12-01T07:36:12.116Z,83.62
2022-12-01T07:38:40.259Z,84.01
2022-12-01T07:41:13.257Z,83.43
2022-12-01T07:43:40.799Z,83.85
2022-12-01T07:46:23.727Z,83.19
2022-12-01T07:48:52.533Z,83.69
2022-12-01T07:51:21.121Z,83.43
2022-12-01T07:53:50.656Z,82.90
2022-12-01T07:56:19.219Z,83.22
2022-12-01T07:58:46.175Z,83.50
2022-12-01T08:01:18.526Z,83.65
2022-12-01T08:03:45.364Z,83.46
2022-12-01T08:06:12.262Z,83.74
2022-12-01T08:08:40.621Z,84.07
2022-12-01T08:11:12.280Z,84.32
2022-12-01T08:13:40.126Z,84.37
2022-12-01T08:16:10.484Z,83.76
2022-12-01T08:18:38.981Z,83.17
2022-12-01T08:21:07.778Z,83.34
2022-12-01T08:23:34.767Z,83.00
2022-12-01T08:26:07.952Z,83.18
2022-12-01T08:28:40.476Z,82.68
2022-12-01T08:31:31.955Z,82.49
2022-12-01T08:33:59.511Z,83.09
2022-12-01T08:36:26.352Z,83.27
2022-12-01T08:38:54.991Z,83.15
2022-12-01T08:41:23.471Z,83.45
2022-12-01T08:43:57.788Z,82.92
2022-12-01T08:46:29.549Z,82.68
2022-12-01T08:48:56.417Z,82.70
2022-12-01T08:51:24.051Z,82.17
2022-12-01T08:53:51.478Z,81.99
2022-12-01T08:56:23.273Z,82.04
2022-12-01T08:58:50.234Z,82.11
2022-12-01T09:01:18.388Z,81.21
2022-12-01T09:03:46.149Z,81.74
2022-12-01T09:06:19.155Z,81.18
2022-12-01T09:08:46.280Z,81.54
2022-12-01T09:11:15.698Z,81.91
2022-12-01T09:13:43.855Z,81.53
2022-12-01T09:16:14.185Z,82.21
2022-12-01T09:18:41.677Z,82.12
2022-12-01T09:21:20.909Z,81.99
2022-12-01T09:23:48.427Z,81.20
2022-12-01T09:26:16.429Z,81.59
2022-12-01T09:28:43.183Z,81.65
2022-12-01T09:31:12.146Z,81.67
2022-12-01T09:33:39.293Z,81.75
2022-12-01T09:36:08.336Z,81.74
2022-12-01T09:38:36.975Z,81.50
2022-12-01T09:41:23.155Z,81.99
2022-12-01T09:44:00.716Z,81.06
2022-12-01T09:46:32.778Z,80.46
2022-12-01T09:49:02.694Z,80.33
2022-12-01T09:51:30.182Z,80.27
2022-12-01T09:53:59.890Z,80.52
2022-12-01T09:56:39.755Z,80.15
2022-12-01T09:59:13.575Z,80.46
2022-12-01T10:01:44.539Z,80.40
2022-12-01T10:04:16.805Z,81.22
2022-12-01T10:06:54.360Z,79.75
2022-12-01T10:09:28.357Z,79.89
2022-12-01T10:12:05.982Z,80.05
2022-12-01T10:14:35.834Z,80.94
2022-12-01T10:17:23.594Z,79.89
2022-12-01T10:20:17.212Z,80.07
2022-12-01T10:23:05.283Z,80.51
2022-12-01T10:25:39.097Z,80.16
2022-12-01T10:28:23.825Z,80.55
2022-12-01T10:30:53.393Z,79.91
2022-12-01T10:33:24.935Z,79.68
2022-12-01T10:35:51.807Z,79.10
2022-12-01T10:38:35.467Z,79.86
2022-12-01T10:41:05.587Z,78.92
2022-12-01T10:43:44.279Z,78.95
2022-12-01T10:46:23.628Z,78.99
2022-12-01T10:48:58.708Z,79.76
2022-12-01T10:51:27.437Z,79.19
2022-12-01T10:54:08.089Z,80.30
2022-12-01T10:56:39.609Z,80.38
2022-12-01T10:59:22.858Z,79.87
2022-12-01T11:01:49.908Z,79.84
2022-12-01T11:04:34.563Z,79.33
2022-12-01T11:07:02.225Z,79.83
2022-12-01T11:09:30.682Z,79.06
2022-12-01T11:12:02.831Z,79.89
2022-12-01T11:14:51.181Z,79.20
2022-12-01T11:17:39.215Z,79.66
2022-12-01T11:20:26.330Z,78.64
2022-12-01T11:23:13.571Z,78.54
2022-12-01T11:25:40.372Z,78.91
2022-12-01T11:28:07.444Z,78.73
2022-12-01T11:30:34.367Z,78.21
2022-12-01T11:33:04.755Z,78.70
2022-12-01T11:35:35.101Z,79.28
2022-12-01T11:38:28.871Z,79.23
2022-12-01T11:41:00.582Z,79.05
2022-12-01T11:43:34.480Z,78.37
2022-12-01T11:46:05.495Z,79.00
2022-12-01T11:48:34.409Z,78.61
2022-12-01T11:51:09.439Z,77.49
2022-12-01T11:53:41.680Z,77.43
2022-12-01T11:56:22.636Z,77.99
2022-12-01T11:59:01.361Z,78.09
2022-12-01T12:01:50.688Z,78.23
2022-12-01T12:04:35.524Z,78.02
2022-12-01T12:07:24.506Z,77.80
2022-12-01T12:09:59.744Z,77.28
2022-12-01T12:12:38.345Z,77.98
2022-12-01T12:15:23.124Z,78.00
2022-12-01T12:17:55.824Z,78.18
2022-12-01T12:20:37.773Z,77.85
2022-12-01T12:23:26.315Z,77.81
2022-12-01T12:26:08.099Z,78.04
2022-12-01T12:28:52.706Z,77.98
2022-12-01T12:31:35.223Z,78.59
2022-12-01T12:34:39.019Z,77.82
2022-12-01T12:37:13.205Z,77.71
2022-12-01T12:40:09.497Z,78.03
2022-12-01T12:42:55.432Z,77.03
2022-12-01T12:45:32.421Z,76.99
2022-12-01T12:48:23.378Z,77.56
2022-12-01T12:51:17.374Z,77.09
2022-12-01T12:53:57.920Z,78.03
2022-12-01T12:56:27.772Z,77.26
2022-12-01T12:58:59.485Z,78.15
2022-12-01T13:01:34.582Z,76.99
2022-12-01T13:04:09.397Z,76.74
2022-12-01T13:06:51.896Z,77.73
2022-12-01T13:09:38.186Z,76.73
2022-12-01T13:12:13.478Z,77.63
2022-12-01T13:14:46.154Z,77.44
2022-12-01T13:17:32.171Z,77.63
2022-12-01T13:19:59.076Z,77.22
2022-12-01T13:22:32.972Z,77.81
2022-12-01T13:25:00.247Z,77.61
2022-12-01T13:27:31.684Z,76.59
2022-12-01T13:30:00.115Z,77.81
2022-12-01T13:32:40.052Z,77.01
2022-12-01T13:35:37.427Z,77.24
2022-12-01T13:38:36.852Z,77.86
2022-12-01T13:41:35.178Z,77.79
2022-12-01T13:44:21.790Z,78.30
2022-12-01T13:46:48.576Z,78.07
2022-12-01T13:49:37.143Z,77.61
2022-12-01T13:52:22.245Z,77.45
2022-12-01T13:55:07.103Z,78.03
2022-12-01T13:57:39.582Z,77.48
2022-12-01T14:00:06.493Z,77.94
2022-12-01T14:02:39.326Z,77.96
2022-12-01T14:05:24.587Z,78.27
2022-12-01T14:07:54.900Z,77.80
2022-12-01T14:10:31.679Z,78.31
2022-12-01T14:13:04.280Z,78.07
2022-12-01T14:15:31.035Z,77.73
2022-12-01T14:18:04.885Z,77.62
2022-12-01T14:20:35.819Z,77.04
2022-12-01T14:23:14.481Z,77.64
2022-12-01T14:25:42.557Z,77.89
2022-12-01T14:28:17.408Z,77.80
2022-12-01T14:30:44.909Z,78.13
2022-12-01T14:33:54.410Z,78.64
2022-12-01T14:36:23.952Z,78.46
2022-12-01T14:38:59.973Z,78.23
2022-12-01T14:41:38.215Z,77.89
2022-12-01T14:44:33.286Z,77.47
2022-12-01T14:47:00.204Z,77.40
2022-12-01T14:49:49.459Z,76.94
2022-12-01T14:52:28.341Z,78.40
2022-12-01T14:55:00.813Z,78.28
2022-12-01T14:57:33.024Z,77.58
2022-12-01T15:00:12.323Z,77.95
2022-12-01T15:02:51.534Z,78.35
2022-12-01T15:05:21.168Z,78.38
2022-12-01T15:07:50.918Z,78.09
2022-12-01T15:10:25.826Z,78.85
2022-12-01T15:12:54.043Z,78.37
2022-12-01T15:15:26.342Z,78.32
2022-12-01T15:17:54.863Z,78.35
2022-12-01T15:20:37.454Z,78.56
2022-12-01T15:23:15.847Z,79.25
2022-12-01T15:25:45.587Z,78.99
2022-12-01T15:28:18.218Z,79.41
2022-12-01T15:30:48.579Z,79.09
2022-12-01T15:33:36.776Z,78.67
2022-12-01T15:36:05.390Z,79.48
2022-12-01T15:38:35.800Z,78.89
2022-12-01T15:43:57.380Z,79.30
2022-12-01T15:46:32.501Z,79.12
2022-12-01T15:49:21.456Z,78.65
2022-12-01T15:51:50.559Z,79.13
2022-12-01T15:54:26.771Z,79.03
2022-12-01T15:56:55.841Z,79.10
2022-12-01T15:59:44.533Z,79.44
2022-12-01T16:02:20.754Z,79.04
2022-12-01T16:04:49.611Z,78.91
2022-12-01T16:07:16.695Z,79.32
2022-12-01T16:09:58.933Z,79.36
2022-12-01T16:12:28.124Z,79.49
2022-12-01T16:15:00.997Z,78.95
2022-12-01T16:17:42.030Z,79.58
2022-12-01T16:20:22.427Z,79.42
2022-12-01T16:22:54.187Z,79.68
2022-12-01T16:25:30.512Z,79.80
2022-12-01T16:27:58.523Z,79.72
2022-12-01T16:30:34.250Z,79.61
2022-12-01T16:33:13.923Z,80.44
2022-12-01T16:35:41.316Z,80.38
2022-12-01T16:38:17.875Z,79.78
2022-12-01T16:40:48.094Z,80.34
2022-12-01T16:43:20.447Z,80.21
2022-12-01T16:45:48.939Z,80.23
2022-12-01T16:48:16.579Z,80.21
2022-12-01T16:50:45.967Z,80.18
2022-12-01T16:53:13.674Z,80.12
2022-12-01T16:55:51.572Z,80.77
2022-12-01T16:58:19.171Z,80.92
2022-12-01T17:00:46.307Z,81.05
2022-12-01T17:03:17.243Z,80.94
2022-12-01T17:05:44.132Z,81.12
2022-12-01T17:08:11.667Z,81.45
2022-12-01T17:10:43.229Z,80.95
2022-12-01T17:13:10.771Z,81.79
2022-12-01T17:15:44.224Z,81.25
2022-12-01T17:18:11.600Z,81.27
2022-12-01T17:20:39.100Z,81.62
2022-12-01T17:23:06.561Z,81.59
2022-12-01T17:25:34.141Z,81.45
2022-12-01T17:28:01.390Z,82.06
2022-12-01T17:30:28.178Z,81.96
2022-12-01T17:32:58.021Z,82.32
2022-12-01T17:35:28.465Z,82.05
2022-12-01T17:37:55.395Z,82.24
2022-12-01T17:40:23.188Z,82.79
2022-12-01T17:42:50.861Z,82.51
2022-12-01T17:45:19.413Z,82.79
2022-12-01T17:47:46.830Z,82.95
2022-12-01T17:50:13.709Z,82.91
2022-12-01T17:52:40.825Z,82.97
2022-12-01T17:55:08.132Z,83.34
2022-12-01T17:57:35.705Z,83.56
2022-12-01T18:00:02.907Z,84.04
2022-12-01T18:02:35.686Z,83.76
2022-12-01T18:05:03.113Z,83.84
2022-12-01T18:07:30.606Z,84.06
2022-12-01T18:09:57.987Z,83.98
2022-12-01T18:12:25.303Z,84.23
2022-12-01T18:14:52.566Z,84.38
2022-12-01T18:17:20.276Z,84.75
2022-12-01T18:19:47.495Z,84.90
2022-12-01T18:22:14.865Z,84.67
2022-12-01T18:24:41.967Z,85.02
2022-12-01T18:27:10.803Z,84.96
2022-12-01T18:29:37.817Z,85.43
2022-12-01T18:32:05.521Z,84.94
2022-12-01T18:34:33.085Z,85.16
2022-12-01T18:37:03.592Z,85.62
2022-12-01T18:39:31.090Z,85.43
2022-12-01T18:41:59.009Z,85.43
2022-12-01T18:44:27.017Z,85.83
2022-12-01T18:46:54.696Z,85.60
2022-12-01T18:49:23.299Z,85.90
2022-12-01T18:51:50.648Z,85.65
2022-12-01T18:54:18.605Z,86.28
2022-12-01T18:56:51.043Z,85.80
2022-12-01T18:59:19.740Z,85.86
2022-12-01T19:01:49.686Z,85.84
2022-12-01T19:04:19.025Z,86.24
2022-12-01T19:06:47.382Z,86.09
2022-12-01T19:09:16.052Z,85.54
2022-12-01T19:11:44.364Z,85.78
2022-12-01T19:14:19.942Z,86.16
2022-12-01T19:16:48.592Z,85.69
2022-12-01T19:19:16.063Z,85.71
2022-12-01T19:21:43.754Z,85.78
2022-12-01T19:24:11.332Z,85.47
2022-12-01T19:26:40.463Z,85.04
2022-12-01T19:29:09.687Z,85.24
2022-12-01T19:31:37.857Z,85.33
2022-12-01T19:34:06.971Z,84.97
2022-12-01T19:36:35.534Z,85.79
2022-12-01T19:39:05.990Z,85.53
2022-12-01T19:41:39.275Z,85.80
2022-12-01T19:44:07.098Z,85.91
2022-12-01T19:46:35.434Z,85.60
2022-12-01T19:49:03.516Z,85.66
2022-12-01T19:51:34.788Z,85.36
2022-12-01T19:54:07.000Z,86.15
2022-12-01T19:56:35.431Z,86.02
2022-12-01T19:59:04.252Z,85.87
2022-12-01T20:01:31.930Z,85.57
2022-12-01T20:03:59.290Z,85.79
2022-12-01T20:06:31.579Z,85.83
2022-12-01T20:09:01.896Z,85.79
2022-12-01T20:11:30.473Z,85.17
2022-12-01T20:13:58.518Z,85.61
2022-12-01T20:16:28.163Z,85.33
2022-12-01T20:18:58.204Z,85.66
2022-12-01T20:21:28.320Z,85.29
2022-12-01T20:24:02.121Z,85.42
2022-12-01T20:26:35.684Z,85.22
2022-12-01T20:29:09.690Z,85.22
2022-12-01T20:31:39.044Z,86.03
2022-12-01T20:34:11.126Z,86.01
2022-12-01T20:36:40.341Z,86.23
2022-12-01T20:39:12.853Z,86.23
2022-12-01T20:41:42.173Z,85.89
2022-12-01T20:44:12.386Z,85.86
2022-12-01T20:46:42.180Z,85.76
2022-12-01T20:49:10.588Z,86.09
2022-12-01T20:51:39.592Z,86.28
2022-12-01T20:54:27.812Z,86.11
2022-12-01T20:57:00.607Z,86.16
2022-12-01T20:59:28.527Z,86.18
2022-12-01T21:01:55.823Z,85.91
2022-12-01T21:04:24.553Z,85.53
2022-12-01T21:06:56.787Z,86.23
2022-12-01T21:09:26.944Z,85.81
2022-12-01T21:11:56.736Z,86.03
2022-12-01T21:14:44.775Z,85.54
2022-12-01T21:17:44.016Z,86.42
2022-12-01T21:20:22.778Z,86.22
2022-12-01T21:22:51.755Z,85.77
2022-12-01T21:25:22.560Z,85.38
2022-12-01T21:27:50.059Z,85.13
2022-12-01T21:30:20.377Z,85.85
2022-12-01T21:32:48.961Z,85.33
2022-12-01T21:35:25.143Z,85.85
2022-12-01T21:38:00.289Z,85.70
2022-12-01T21:40:27.679Z,86.02
2022-12-01T21:42:56.348Z,85.65
2022-12-01T21:45:29.543Z,86.08
2022-12-01T21:48:18.559Z,86.09
2022-12-01T21:50:50.836Z,85.71
2022-12-01T21:53:21.442Z,86.06
2022-12-01T21:55:48.495Z,85.76
2022-12-01T21:58:27.164Z,85.17
2022-12-01T22:00:56.197Z,85.72
2022-12-01T22:03:37.164Z,86.08
2022-12-01T22:09:10.702Z,85.43
2022-12-01T22:11:37.474Z,85.21
2022-12-01T22:14:13.578Z,85.80
2022-12-01T22:16:44.151Z,85.94
2022-12-01T22:19:16.726Z,85.75
2022-12-01T22:21:48.456Z,85.68
2022-12-01T22:24:27.100Z,85.80
2022-12-01T22:27:09.578Z,85.40
2022-12-01T22:29:41.781Z,85.29
2022-12-01T22:32:14.546Z,85.56
2022-12-01T22:34:53.951Z,84.77
2022-12-01T22:37:30.113Z,85.12
2022-12-01T22:39:57.609Z,85.37
2022-12-01T22:42:33.539Z,85.36
2022-12-01T22:45:19.111Z,85.22
2022-12-01T22:47:46.104Z,85.00
2022-12-01T22:50:27.935Z,84.96
2022-12-01T22:53:00.085Z,85.23
2022-12-01T22:55:26.845Z,85.53
2022-12-01T22:57:54.592Z,85.06
2022-12-01T23:00:23.176Z,85.57
2022-12-01T23:02:52.365Z,85.39
2022-12-01T23:05:26.455Z,85.69
2022-12-01T23:07:54.811Z,85.11
2022-12-01T23:10:24.436Z,85.65
2022-12-01T23:12:53.565Z,85.36
2022-12-01T23:15:31.314Z,85.46
2022-12-01T23:18:19.417Z,85.68
2022-12-01T23:20:54.042Z,85.74
2022-12-01T23:23:42.509Z,85.73
2022-12-01T23:26:09.484Z,86.17
2022-12-01T23:28:37.639Z,86.29
2022-12-01T23:31:05.266Z,86.39
2022-12-01T23:33:33.692Z,86.38
2022-12-01T23:36:06.711Z,86.18
2022-12-01T23:38:38.610Z,85.39
2022-12-01T23:41:26.046Z,85.73
2022-12-01T23:44:02.062Z,85.76
2022-12-01T23:46:29.236Z,85.69
2022-12-01T23:49:01.354Z,85.20
2022-12-01T23:51:30.892Z,85.80
2022-12-01T23:54:00.763Z,85.77
2022-12-01T23:56:31.177Z,86.19
2022-12-01T23:59:00.747Z,85.52
